Tušimice, Česko

13:26 CEST 29. Červenec 2015 (GMT +0200)
Kadan, Czech republic | | Change Station
CLOSE
Current Station
Osobní povětrnostní stanice
Location: ECOdate, Kadan, USTECKY KRAJ
Nadmořská výška: 1033 ft
Poblíž povětrnostní stanice

Výška 1033 ft 50.38 °N, 13.26 °E | Updated 18 seconds ago

Zataženo
Zataženo
64.9 °F
Pocit jako 64.9 °F
S
1.2
Vítr proměnlivý Vítr od JJV
Gusts 4.3 mil/h

Dnes
Vysoké -- | Nízké -- °F
--% Možnost srážek
Včera
Vysoké -- | Nízké -- °F
Precip. -- inčů
5:29 AM 8:55 PM
Dorůstající měsíc, 95% visible
Tlak 29.80 inčů
Viditelnost 6.2 mílí
Zataženo Polojasno 2500 ft
Skoro zataženo 3800 ft
Rosný bod 47 °F
Vlhkost 53%
Dešťové srážky 0.00 inčů
Sněhová pokrývka Není k dispozici
UV záření 5 ze 12
Pyl Není k dispozici
Kvalita ovzduší Není k dispozici
Flu Activity Není k dispozici
SPECI LKKV 291107Z 24007KT 200V290 9999 -SHRA SCT025 BKN038 15/08 Q1009 RMK REG QNH 1006

More Conditions Fewer Conditions

Tlak 29.80 inčů
Viditelnost 6.2 mílí
Zataženo Polojasno 2500 ft
Skoro zataženo 3800 ft
Rosný bod 47 °F
Vlhkost 53%
Dešťové srážky 0.00 inčů
Sněhová pokrývka Není k dispozici
UV záření 5 ze 12
Pyl Není k dispozici
Kvalita ovzduší Není k dispozici
Flu Activity Není k dispozici
SPECI LKKV 291107Z 24007KT 200V290 9999 -SHRA SCT025 BKN038 15/08 Q1009 RMK REG QNH 1006

More Conditions Fewer Conditions

10-Day Weather Forecast

×

Almanac

Astronomie

Jul. 29, 2015 Východ Západ
Skutečný čas
Občanský soumrak
Námořní soumrak
Astronomický soumrak
Měsíc
Délka denního světla
Délka dne
Tomorrow will be .
, % of the Moon is Illuminated

Dnešní extrémy

Nejvyšší hodnoty ve státě Nejnižší hodnoty ve státě

Community

WunderPhotos

Upload Photos

1,842,075 snímků staženo!

WunderBlogs® & News

Nearby

Kvalita ovzduší

  Kvalita ovzduší Index kvality ovzduší Polutant
Not available.

Výška sněhu

Station Hloubka Nadmořská výška

Seizmická činnost

Město Distance Mag. Čas & datum
Minimální zobrazený rozsah je 2.5.

Pobřežní teplota vody

Lokalita Teplota

Stations

Poblíž povětrnostní stanice

Lokace stanice Tepl. Ochlazování větrem Rosný bod Vlhkost Vítr Precip. Výška Čas hlášení Typ